createdAt,value
2023-01-08T00:01:06.355Z,100982.72
2023-01-08T00:03:35.124Z,100967.22
2023-01-08T00:06:05.928Z,100961.25
2023-01-08T00:08:34.536Z,100915.72
2023-01-08T00:11:02.555Z,100938.88
2023-01-08T00:13:30.633Z,100936.91
2023-01-08T00:15:58.483Z,100952.00
2023-01-08T00:18:27.401Z,100946.03
2023-01-08T00:20:55.224Z,100951.31
2023-01-08T00:23:24.461Z,100938.38
2023-01-08T00:25:52.618Z,100905.19
2023-01-08T00:28:21.105Z,100936.78
2023-01-08T00:30:49.189Z,100905.88
2023-01-08T00:33:17.777Z,100923.16
2023-01-08T00:35:45.704Z,100917.19
2023-01-08T00:38:13.864Z,100916.31
2023-01-08T00:40:43.249Z,100912.13
2023-01-08T00:43:11.143Z,100908.75
2023-01-08T00:45:39.228Z,100904.47
2023-01-08T00:48:07.737Z,100900.19
2023-01-08T00:50:35.564Z,100899.41
2023-01-08T00:53:04.322Z,100896.63
2023-01-08T00:55:32.352Z,100898.22
2023-01-08T00:58:01.609Z,100870.66
2023-01-08T01:00:29.750Z,100880.22
2023-01-08T01:02:57.732Z,100874.84
2023-01-08T01:05:25.804Z,100867.78
2023-01-08T01:07:53.831Z,100866.47
2023-01-08T01:10:21.821Z,100874.34
2023-01-08T01:12:49.857Z,100862.31
2023-01-08T01:15:19.833Z,100863.19
2023-01-08T01:17:47.935Z,100876.22
2023-01-08T01:20:17.318Z,100858.91
2023-01-08T01:22:45.521Z,100853.66
2023-01-08T01:25:13.475Z,100860.59
2023-01-08T01:27:41.519Z,100840.34
2023-01-08T01:30:10.267Z,100851.16
2023-01-08T01:32:39.581Z,100849.47
2023-01-08T01:35:08.365Z,100847.59
2023-01-08T01:37:36.344Z,100811.84
2023-01-08T01:40:04.842Z,100837.16
2023-01-08T01:42:41.660Z,100831.19
2023-01-08T01:45:17.426Z,100839.03
2023-01-08T01:47:50.757Z,100827.00
2023-01-08T01:50:21.738Z,100811.91
2023-01-08T01:52:54.853Z,100827.09
2023-01-08T01:55:22.891Z,100846.88
2023-01-08T01:57:56.060Z,100820.84
2023-01-08T02:00:24.443Z,100818.63
2023-01-08T02:02:54.748Z,100819.53
2023-01-08T02:05:23.549Z,100798.28
2023-01-08T02:08:00.209Z,100815.44
2023-01-08T02:10:35.725Z,100806.78
2023-01-08T02:13:09.606Z,100804.38
2023-01-08T02:15:48.595Z,100737.50
2023-01-08T02:18:21.035Z,100801.00
2023-01-08T02:20:55.569Z,100798.50
2023-01-08T02:23:32.308Z,100788.25
2023-01-08T02:26:13.467Z,100784.97
2023-01-08T02:28:46.318Z,100779.97
2023-01-08T02:31:15.706Z,100791.31
2023-01-08T02:33:43.638Z,100768.66
2023-01-08T02:36:39.172Z,100775.16
2023-01-08T02:39:22.017Z,100780.44
2023-01-08T02:42:07.403Z,100688.31
2023-01-08T02:44:51.862Z,100756.78
2023-01-08T02:47:27.186Z,100650.94
2023-01-08T02:50:02.055Z,100760.81
2023-01-08T02:52:32.660Z,100732.97
2023-01-08T02:55:04.054Z,100769.66
2023-01-08T02:57:35.087Z,100763.50
2023-01-08T03:00:03.173Z,100768.84
2023-01-08T03:02:34.294Z,100762.06
2023-01-08T03:05:08.928Z,100743.34
2023-01-08T03:07:37.294Z,100757.78
2023-01-08T03:10:05.974Z,100757.78
2023-01-08T03:12:44.837Z,100762.16
2023-01-08T03:15:19.904Z,100727.28
2023-01-08T03:17:51.725Z,100718.34
2023-01-08T03:20:22.840Z,100739.06
2023-01-08T03:22:52.940Z,100715.59
2023-01-08T03:25:23.519Z,100729.69
2023-01-08T03:27:58.945Z,100667.50
2023-01-08T03:30:29.199Z,100711.22
2023-01-08T03:33:00.028Z,100699.53
2023-01-08T03:35:29.172Z,100723.09
2023-01-08T03:38:01.862Z,100713.63
2023-01-08T03:40:36.351Z,100711.06
2023-01-08T03:43:05.652Z,100716.22
2023-01-08T03:45:34.236Z,100684.56
2023-01-08T03:48:04.873Z,100707.84
2023-01-08T03:50:33.640Z,100688.75
2023-01-08T03:53:01.908Z,100707.22
2023-01-08T03:55:29.734Z,100685.25
2023-01-08T03:57:58.295Z,100687.94
2023-01-08T04:00:27.970Z,100685.06
2023-01-08T04:02:55.859Z,100680.78
2023-01-08T04:05:23.828Z,100687.84
2023-01-08T04:07:51.823Z,100686.13
2023-01-08T04:10:19.649Z,100694.75
2023-01-08T04:12:47.547Z,100695.75
2023-01-08T04:15:15.749Z,100639.31
2023-01-08T04:17:45.014Z,100688.16
2023-01-08T04:20:13.202Z,100678.50
2023-01-08T04:22:41.173Z,100678.88
2023-01-08T04:25:09.759Z,100697.97
2023-01-08T04:27:37.808Z,100686.81
2023-01-08T04:30:06.640Z,100680.09
2023-01-08T04:32:34.499Z,100686.25
2023-01-08T04:35:03.787Z,100681.25
2023-01-08T04:37:31.723Z,100680.53
2023-01-08T04:39:59.635Z,100668.47
2023-01-08T04:42:27.525Z,100671.16
2023-01-08T04:44:55.464Z,100650.66
2023-01-08T04:47:23.286Z,100667.75
2023-01-08T04:49:51.304Z,100664.44
2023-01-08T04:52:20.653Z,100668.75
2023-01-08T04:54:48.529Z,100643.56
2023-01-08T04:57:16.442Z,100648.03
2023-01-08T04:59:44.379Z,100642.84
2023-01-08T05:02:12.295Z,100632.56
2023-01-08T05:04:40.347Z,100636.06
2023-01-08T05:07:08.864Z,100627.47
2023-01-08T05:09:38.035Z,100626.66
2023-01-08T05:12:06.464Z,100628.44
2023-01-08T05:14:34.372Z,100618.00
2023-01-08T05:17:02.238Z,100623.28
2023-01-08T05:19:30.199Z,100602.84
2023-01-08T05:21:58.343Z,100604.34
2023-01-08T05:24:26.199Z,100608.69
2023-01-08T05:26:55.463Z,100605.31
2023-01-08T05:29:23.484Z,100597.53
2023-01-08T05:31:51.301Z,100598.44
2023-01-08T05:34:19.207Z,100598.50
2023-01-08T05:36:47.114Z,100587.25
2023-01-08T05:39:14.977Z,100582.97
2023-01-08T05:41:43.023Z,100590.81
2023-01-08T05:44:12.654Z,100593.41
2023-01-08T05:46:40.502Z,100590.91
2023-01-08T05:49:08.694Z,100587.50
2023-01-08T05:51:36.620Z,100584.91
2023-01-08T05:54:04.710Z,100575.94
2023-01-08T05:56:32.639Z,100584.28
2023-01-08T05:59:00.549Z,100579.91
2023-01-08T06:01:29.803Z,100546.47
2023-01-08T06:03:59.121Z,100572.13
2023-01-08T06:06:27.138Z,100574.00
2023-01-08T06:08:55.049Z,100567.94
2023-01-08T06:11:23.015Z,100564.53
2023-01-08T06:13:50.901Z,100550.34
2023-01-08T06:16:20.972Z,100565.50
2023-01-08T06:18:50.409Z,100557.72
2023-01-08T06:21:18.482Z,100556.84
2023-01-08T06:23:46.311Z,100556.03
2023-01-08T06:26:14.269Z,100548.34
2023-01-08T06:28:42.151Z,100554.41
2023-01-08T06:31:10.185Z,100544.06
2023-01-08T06:33:38.199Z,100552.78
2023-01-08T06:36:08.349Z,100534.56
2023-01-08T06:38:37.268Z,100530.53
2023-01-08T06:41:06.449Z,100543.47
2023-01-08T06:43:36.529Z,100472.66
2023-01-08T06:46:08.991Z,100523.66
2023-01-08T06:48:37.403Z,100519.44
2023-01-08T06:51:07.463Z,100508.84
2023-01-08T06:53:35.490Z,100510.78
2023-01-08T06:56:04.518Z,100514.81
2023-01-08T06:58:32.617Z,100509.97
2023-01-08T07:01:00.603Z,100508.34
2023-01-08T07:03:28.725Z,100455.91
2023-01-08T07:05:57.006Z,100511.81
2023-01-08T07:08:26.426Z,100502.34
2023-01-08T07:10:54.823Z,100507.59
2023-01-08T07:13:23.915Z,100496.44
2023-01-08T07:15:51.916Z,100500.00
2023-01-08T07:18:20.007Z,100507.75
2023-01-08T07:20:49.496Z,100511.31
2023-01-08T07:23:17.490Z,100509.69
2023-01-08T07:25:47.470Z,100514.00
2023-01-08T07:28:16.940Z,100466.34
2023-01-08T07:30:44.918Z,100495.69
2023-01-08T07:33:12.827Z,100496.00
2023-01-08T07:35:40.754Z,100490.03
2023-01-08T07:38:08.754Z,100494.38
2023-01-08T07:40:39.167Z,100488.41
2023-01-08T07:43:12.560Z,100490.25
2023-01-08T07:45:40.664Z,100482.41
2023-01-08T07:48:10.527Z,100485.06
2023-01-08T07:50:41.443Z,100488.63
2023-01-08T07:53:09.704Z,100485.38
2023-01-08T07:55:37.516Z,100502.72
2023-01-08T07:58:11.097Z,100479.06
2023-01-08T08:00:41.886Z,100458.53
2023-01-08T08:03:13.239Z,100489.91
2023-01-08T08:05:41.254Z,100493.22
2023-01-08T08:08:10.647Z,100495.31
2023-01-08T08:10:38.928Z,100504.00
2023-01-08T08:13:07.231Z,100492.41
2023-01-08T08:15:37.699Z,100495.47
2023-01-08T08:18:06.871Z,100490.13
2023-01-08T08:20:34.946Z,100488.75
2023-01-08T08:23:03.169Z,100486.22
2023-01-08T08:25:31.400Z,100484.69
2023-01-08T08:27:59.957Z,100465.34
2023-01-08T08:30:29.504Z,100490.91
2023-01-08T08:33:00.905Z,100487.50
2023-01-08T08:35:29.142Z,100483.34
2023-01-08T08:37:57.664Z,100482.59
2023-01-08T08:40:26.720Z,100479.28
2023-01-08T08:42:57.270Z,100480.25
2023-01-08T08:45:25.314Z,100464.22
2023-01-08T08:47:53.498Z,100482.97
2023-01-08T08:50:23.321Z,100437.13
2023-01-08T08:52:51.155Z,100462.16
2023-01-08T08:55:19.351Z,100473.78
2023-01-08T08:57:48.237Z,100478.16
2023-01-08T09:00:17.279Z,100469.56
2023-01-08T09:02:45.511Z,100485.28
2023-01-08T09:05:13.616Z,100482.75
2023-01-08T09:07:42.791Z,100472.53
2023-01-08T09:10:11.140Z,100447.34
2023-01-08T09:12:38.957Z,100441.41
2023-01-08T09:15:07.749Z,100469.34
2023-01-08T09:17:37.025Z,100481.44
2023-01-08T09:20:05.669Z,100463.34
2023-01-08T09:22:33.648Z,100463.13
2023-01-08T09:25:03.002Z,100460.06
2023-01-08T09:27:30.849Z,100465.34
2023-01-08T09:29:58.621Z,100455.84
2023-01-08T09:32:26.636Z,100342.91
2023-01-08T09:34:54.429Z,100450.28
2023-01-08T09:37:23.329Z,100465.56
2023-01-08T09:40:01.542Z,100466.53
2023-01-08T09:42:32.253Z,100448.44
2023-01-08T09:45:03.791Z,100449.31
2023-01-08T09:47:37.930Z,100443.44
2023-01-08T09:50:09.220Z,100432.19
2023-01-08T09:52:38.909Z,100445.22
2023-01-08T09:55:14.440Z,100436.63
2023-01-08T09:57:44.003Z,100436.78
2023-01-08T10:00:17.528Z,100306.69
2023-01-08T10:02:47.223Z,100449.81
2023-01-08T10:05:16.944Z,100429.94
2023-01-08T10:07:45.824Z,100426.53
2023-01-08T10:10:19.876Z,100426.53
2023-01-08T10:12:50.617Z,100430.84
2023-01-08T10:15:20.597Z,100416.97
2023-01-08T10:17:52.581Z,100398.78
2023-01-08T10:20:22.479Z,100408.28
2023-01-08T10:22:54.462Z,100416.97
2023-01-08T10:25:23.859Z,100377.34
2023-01-08T10:27:54.834Z,100406.66
2023-01-08T10:30:25.396Z,100404.88
2023-01-08T10:32:55.989Z,100397.97
2023-01-08T10:35:34.134Z,100384.19
2023-01-08T10:38:02.745Z,100385.97
2023-01-08T10:40:37.903Z,100392.84
2023-01-08T10:43:16.658Z,100377.34
2023-01-08T10:45:46.687Z,100386.91
2023-01-08T10:48:19.357Z,100380.84
2023-01-08T10:50:47.953Z,100376.53
2023-01-08T10:53:25.825Z,100384.25
2023-01-08T10:56:00.754Z,100379.94
2023-01-08T10:58:30.829Z,100373.13
2023-01-08T11:01:11.298Z,100347.56
2023-01-08T11:03:39.443Z,100357.47
2023-01-08T11:06:15.165Z,100347.16
2023-01-08T11:08:54.173Z,100346.28
2023-01-08T11:11:23.168Z,100341.97
2023-01-08T11:13:58.733Z,100335.81
2023-01-08T11:16:35.285Z,100353.31
2023-01-08T11:19:03.817Z,100328.78
2023-01-08T11:21:33.233Z,100341.22
2023-01-08T11:24:16.616Z,100251.44
2023-01-08T11:26:49.481Z,100341.22
2023-01-08T11:29:23.733Z,100347.22
2023-01-08T11:31:57.218Z,100344.63
2023-01-08T11:34:34.078Z,100327.75
2023-01-08T11:37:10.397Z,100331.31
2023-01-08T11:39:39.218Z,100312.59
2023-01-08T11:42:28.500Z,100354.13
2023-01-08T11:45:12.801Z,100349.81
2023-01-08T11:47:57.946Z,100343.75
2023-01-08T11:50:29.859Z,100344.56
2023-01-08T11:53:11.476Z,100323.81
2023-01-08T11:55:51.081Z,100329.06
2023-01-08T11:58:28.216Z,100319.56
2023-01-08T12:01:07.972Z,100324.75
2023-01-08T12:03:41.890Z,100314.09
2023-01-08T12:06:19.216Z,100320.44
2023-01-08T12:08:56.038Z,100318.75
2023-01-08T12:11:28.443Z,100320.59
2023-01-08T12:14:20.573Z,100316.22
2023-01-08T12:17:20.750Z,100305.84
2023-01-08T12:20:01.083Z,100306.72
2023-01-08T12:22:40.006Z,100276.22
2023-01-08T12:25:24.232Z,100298.03
2023-01-08T12:28:03.967Z,100290.25
2023-01-08T12:30:45.605Z,100242.06
2023-01-08T12:33:24.178Z,100305.00
2023-01-08T12:35:56.083Z,100299.81
2023-01-08T12:38:30.042Z,100288.56
2023-01-08T12:41:01.997Z,100277.84
2023-01-08T12:43:34.028Z,100289.50
2023-01-08T12:46:04.830Z,100289.50
2023-01-08T12:48:36.711Z,100291.22
2023-01-08T12:51:08.833Z,100288.63
2023-01-08T12:53:45.154Z,100282.59
2023-01-08T12:56:20.693Z,100291.28
2023-01-08T12:59:12.762Z,100279.94
2023-01-08T13:01:52.182Z,100279.94
2023-01-08T13:04:21.788Z,100246.44
2023-01-08T13:06:56.423Z,100262.66
2023-01-08T13:09:27.939Z,100259.19
2023-01-08T13:11:58.416Z,100249.28
2023-01-08T13:14:27.584Z,100263.47
2023-01-08T13:17:05.265Z,100255.69
2023-01-08T13:19:41.726Z,100251.38
2023-01-08T13:22:24.629Z,100200.84
2023-01-08T13:24:53.136Z,100248.78
2023-01-08T13:27:30.766Z,100215.41
2023-01-08T13:30:02.067Z,100224.16
2023-01-08T13:32:44.230Z,100230.38
2023-01-08T13:35:24.865Z,100240.06
2023-01-08T13:37:54.594Z,100230.84
2023-01-08T13:40:53.772Z,100221.69
2023-01-08T13:43:23.921Z,100182.22
2023-01-08T13:46:09.003Z,100238.28
2023-01-08T13:48:40.565Z,100235.41
2023-01-08T13:51:33.047Z,100244.34
2023-01-08T13:54:15.019Z,100232.19
2023-01-08T13:56:44.226Z,100245.94
2023-01-08T13:59:21.724Z,100252.00
2023-01-08T14:01:56.374Z,100230.38
2023-01-08T14:04:25.245Z,100230.28
2023-01-08T14:06:54.982Z,100230.28
2023-01-08T14:09:24.834Z,100239.78
2023-01-08T14:11:56.694Z,100228.47
2023-01-08T14:14:25.722Z,100157.56
2023-01-08T14:16:55.526Z,100229.34
2023-01-08T14:19:25.936Z,100221.56
2023-01-08T14:21:57.153Z,100218.91
2023-01-08T14:24:27.054Z,100218.91
2023-01-08T14:26:56.792Z,100219.72
2023-01-08T14:29:29.856Z,100225.72
2023-01-08T14:32:00.308Z,100203.69
2023-01-08T14:34:31.990Z,100215.28
2023-01-08T14:37:01.355Z,100226.41
2023-01-08T14:39:35.440Z,100211.66
2023-01-08T14:42:26.724Z,100115.78
2023-01-08T14:44:56.337Z,100205.59
2023-01-08T14:47:30.683Z,100208.00
2023-01-08T14:49:58.915Z,100211.53
2023-01-08T14:52:28.386Z,100201.16
2023-01-08T14:55:01.465Z,100188.75
2023-01-08T14:57:30.109Z,100181.66
2023-01-08T14:59:59.393Z,100191.59
2023-01-08T15:02:30.913Z,100197.59
2023-01-08T15:05:03.528Z,100195.84
2023-01-08T15:07:32.875Z,100195.03
2023-01-08T15:10:02.732Z,100196.78
2023-01-08T15:12:32.468Z,100193.31
2023-01-08T15:15:11.217Z,100185.41
2023-01-08T15:17:41.692Z,100169.69
2023-01-08T15:20:18.579Z,100182.03
2023-01-08T15:22:48.143Z,100182.88
2023-01-08T15:25:18.903Z,100174.19
2023-01-08T15:27:55.029Z,100160.06
2023-01-08T15:30:30.012Z,100171.53
2023-01-08T15:33:08.373Z,100161.09
2023-01-08T15:35:36.266Z,100170.66
2023-01-08T15:38:05.540Z,100166.34
2023-01-08T15:40:33.475Z,100171.47
2023-01-08T15:43:13.208Z,100167.09
2023-01-08T15:45:43.579Z,100164.50
2023-01-08T15:48:12.089Z,100173.13
2023-01-08T15:50:42.027Z,100168.81
2023-01-08T15:53:18.131Z,100148.53
2023-01-08T15:55:47.114Z,100151.41
2023-01-08T15:58:15.804Z,100157.34
2023-01-08T16:00:45.430Z,100149.63
2023-01-08T16:03:14.721Z,100153.13
2023-01-08T16:05:42.913Z,100149.63
2023-01-08T16:08:13.199Z,100149.63
2023-01-08T16:10:41.135Z,100147.84
2023-01-08T16:13:11.762Z,100167.72
2023-01-08T16:15:40.388Z,100150.38
2023-01-08T16:18:08.207Z,100125.44
2023-01-08T16:20:36.218Z,100149.38
2023-01-08T16:23:04.193Z,100138.94
2023-01-08T16:25:33.598Z,100144.94
2023-01-08T16:28:02.835Z,100135.38
2023-01-08T16:30:30.750Z,100154.38
2023-01-08T16:32:58.676Z,100142.22
2023-01-08T16:35:26.583Z,100134.31
2023-01-08T16:37:54.468Z,100139.69
2023-01-08T16:40:22.406Z,100130.13
2023-01-08T16:42:51.712Z,100128.91
2023-01-08T16:45:19.683Z,100128.41
2023-01-08T16:47:47.519Z,100124.88
2023-01-08T16:50:15.553Z,100134.31
2023-01-08T16:52:43.515Z,100136.81
2023-01-08T16:55:11.965Z,100129.81
2023-01-08T16:57:39.873Z,100114.75
2023-01-08T17:00:10.714Z,100075.16
2023-01-08T17:02:39.028Z,100135.69
2023-01-08T17:05:07.861Z,100120.94
2023-01-08T17:07:36.228Z,100124.34
2023-01-08T17:10:04.413Z,100123.47
2023-01-08T17:12:32.343Z,100108.25
2023-01-08T17:15:00.247Z,100108.53
2023-01-08T17:17:29.480Z,100043.72
2023-01-08T17:19:57.439Z,100125.94
2023-01-08T17:22:25.361Z,100119.03
2023-01-08T17:24:53.221Z,100109.47
2023-01-08T17:27:21.236Z,100118.16
2023-01-08T17:29:49.217Z,100113.84
2023-01-08T17:32:17.087Z,100127.63
2023-01-08T17:34:46.360Z,100102.66
2023-01-08T17:37:15.213Z,100104.31
2023-01-08T17:39:43.856Z,100105.19
2023-01-08T17:42:25.663Z,100092.16
2023-01-08T17:44:54.036Z,100049.75
2023-01-08T17:47:22.596Z,100034.75
2023-01-08T17:49:52.569Z,100085.19
2023-01-08T17:52:21.113Z,100071.16
2023-01-08T17:54:50.054Z,100059.00
2023-01-08T17:57:18.319Z,100077.41
2023-01-08T17:59:47.064Z,100089.50
2023-01-08T18:02:17.180Z,100080.00
2023-01-08T18:04:46.253Z,100074.56
2023-01-08T18:07:16.168Z,100085.19
2023-01-08T18:09:44.870Z,100080.00
2023-01-08T18:12:12.935Z,100051.03
2023-01-08T18:14:41.643Z,100061.94
2023-01-08T18:17:09.572Z,100068.00
2023-01-08T18:19:37.610Z,100065.34
2023-01-08T18:22:05.688Z,100054.97
2023-01-08T18:24:35.741Z,100055.84
2023-01-08T18:27:03.844Z,100048.91
2023-01-08T18:29:32.073Z,100032.25
2023-01-08T18:32:01.805Z,100034.22
2023-01-08T18:34:29.707Z,100029.91
2023-01-08T18:36:57.788Z,100024.72
2023-01-08T18:39:26.616Z,100031.63
2023-01-08T18:42:15.434Z,100028.16
2023-01-08T18:44:43.275Z,99955.47
2023-01-08T18:47:12.519Z,100017.53
2023-01-08T18:49:40.538Z,100012.53
2023-01-08T18:52:08.654Z,100016.81
2023-01-08T18:54:36.474Z,100005.44
2023-01-08T18:57:05.772Z,100013.41
2023-01-08T18:59:33.828Z,100000.94
2023-01-08T19:02:02.011Z,100013.41
2023-01-08T19:04:29.994Z,100018.66
2023-01-08T19:06:57.958Z,100005.25
2023-01-08T19:09:25.839Z,100009.13
2023-01-08T19:11:53.731Z,100013.47
2023-01-08T19:14:23.008Z,100014.38
2023-01-08T19:16:52.005Z,100010.13
2023-01-08T19:19:20.741Z,100002.34
2023-01-08T19:21:48.982Z,99986.28
2023-01-08T19:24:16.974Z,100011.13
2023-01-08T19:26:45.815Z,100001.66
2023-01-08T19:29:13.987Z,99980.47
2023-01-08T19:31:43.314Z,100001.66
2023-01-08T19:34:11.965Z,99986.78
2023-01-08T19:36:41.823Z,99981.59
2023-01-08T19:39:11.561Z,99978.13
2023-01-08T19:41:57.009Z,99979.13
2023-01-08T19:44:24.991Z,99992.34
2023-01-08T19:46:54.509Z,99991.47
2023-01-08T19:49:23.685Z,99980.03
2023-01-08T19:51:52.707Z,99980.97
2023-01-08T19:54:23.709Z,99964.28
2023-01-08T19:56:51.686Z,99986.34
2023-01-08T19:59:20.109Z,99920.22
2023-01-08T20:01:48.218Z,99987.28
2023-01-08T20:04:17.661Z,99973.50
2023-01-08T20:06:46.158Z,99974.38
2023-01-08T20:09:14.015Z,99976.16
2023-01-08T20:11:41.935Z,99986.53
2023-01-08T20:14:09.811Z,99971.03
2023-01-08T20:16:37.727Z,99962.34
2023-01-08T20:19:05.776Z,99965.84
2023-01-08T20:21:35.841Z,99873.19
2023-01-08T20:24:09.400Z,99948.13
2023-01-08T20:26:38.435Z,99955.47
2023-01-08T20:29:06.740Z,99957.22
2023-01-08T20:31:35.215Z,99927.66
2023-01-08T20:34:05.220Z,99958.19
2023-01-08T20:36:35.669Z,99956.47
2023-01-08T20:39:06.906Z,99846.84
2023-01-08T20:41:34.798Z,99958.31
2023-01-08T20:44:05.481Z,99951.34
2023-01-08T20:46:35.536Z,99951.34
2023-01-08T20:49:05.505Z,99945.97
2023-01-08T20:51:36.853Z,99943.50
2023-01-08T20:54:07.140Z,99945.28
2023-01-08T20:56:35.214Z,99903.00
2023-01-08T20:59:03.943Z,99948.75
2023-01-08T21:01:34.247Z,99940.97
2023-01-08T21:04:03.738Z,99873.97
2023-01-08T21:06:33.596Z,99936.59
2023-01-08T21:09:07.698Z,99927.75
2023-01-08T21:11:37.322Z,99928.81
2023-01-08T21:14:07.966Z,99924.41
2023-01-08T21:16:36.945Z,99904.81
2023-01-08T21:19:05.146Z,99906.72
2023-01-08T21:21:34.987Z,99909.38
2023-01-08T21:24:07.301Z,99921.50
2023-01-08T21:26:35.877Z,99920.56
2023-01-08T21:29:06.063Z,99907.34
2023-01-08T21:31:35.267Z,99909.94
2023-01-08T21:34:04.774Z,99911.59
2023-01-08T21:36:33.206Z,99918.44
2023-01-08T21:39:02.744Z,99906.28
2023-01-08T21:41:49.842Z,99901.09
2023-01-08T21:44:37.287Z,99909.69
2023-01-08T21:47:06.617Z,99912.28
2023-01-08T21:49:35.964Z,99907.09
2023-01-08T21:52:21.735Z,99902.81
2023-01-08T21:54:49.713Z,99911.47
2023-01-08T21:57:19.097Z,99903.69
2023-01-08T21:59:50.848Z,99889.84
2023-01-08T22:02:20.716Z,99899.31
2023-01-08T22:04:49.111Z,99887.31
2023-01-08T22:07:17.701Z,99867.03
2023-01-08T22:09:45.705Z,99885.53
2023-01-08T22:12:14.171Z,99881.31
2023-01-08T22:14:43.515Z,99878.66
2023-01-08T22:17:11.766Z,99882.13
2023-01-08T22:19:40.129Z,99876.94
2023-01-08T22:22:10.893Z,99869.09
2023-01-08T22:24:39.522Z,99883.00
2023-01-08T22:27:08.281Z,99881.31
2023-01-08T22:29:36.444Z,99865.25
2023-01-08T22:32:06.787Z,99882.88
2023-01-08T22:34:35.437Z,99890.66
2023-01-08T22:37:04.169Z,99890.66
2023-01-08T22:39:32.354Z,99878.59
2023-01-08T22:42:00.176Z,99877.75
2023-01-08T22:44:28.115Z,99862.78
2023-01-08T22:46:56.677Z,99876.81
2023-01-08T22:49:25.944Z,99867.28
2023-01-08T22:51:53.975Z,99872.44
2023-01-08T22:54:21.990Z,99831.03
2023-01-08T22:56:49.807Z,99869.88
2023-01-08T22:59:17.691Z,99865.50
2023-01-08T23:01:45.744Z,99866.31
2023-01-08T23:04:15.286Z,99865.44
2023-01-08T23:06:44.737Z,99868.03
2023-01-08T23:09:12.884Z,99861.97
2023-01-08T23:11:40.809Z,99863.69
2023-01-08T23:14:08.789Z,99851.28
2023-01-08T23:16:37.015Z,99856.66
2023-01-08T23:19:04.966Z,99862.72
2023-01-08T23:21:32.986Z,99837.28
2023-01-08T23:24:02.258Z,99849.72
2023-01-08T23:26:30.894Z,99836.31
2023-01-08T23:28:59.500Z,99854.88
2023-01-08T23:31:29.842Z,99824.78
2023-01-08T23:33:58.998Z,99848.81
2023-01-08T23:36:27.092Z,99848.81
2023-01-08T23:38:56.751Z,99843.63
2023-01-08T23:41:34.424Z,99847.22
2023-01-08T23:44:05.111Z,99826.97
2023-01-08T23:46:33.153Z,99823.38
2023-01-08T23:49:01.968Z,99818.19
2023-01-08T23:51:30.032Z,99829.09
2023-01-08T23:53:58.105Z,99833.38
2023-01-08T23:56:27.854Z,99836.88
2023-01-08T23:58:55.847Z,99830.78
